Time;durP1;ratioP1;P1;durP2;ratioP2;P2;SDS_P1;SDS_P2;PMS_P1;PMS_P2;Temp;Humidity;BMP_temperature;BMP_pressure;BME280_temperature;BME280_humidity;BME280_pressure;Samples;Min_cycle;Max_cycle;Signal;HPM_P1;HPM_P2
2022/12/09 00:01:48;;;;;;;18.17;10.13;;;;;;;;;;5054219;28;20124;-64
2022/12/09 00:04:16;;;;;;;21.08;10.68;;;;;;;;;;5054361;28;20036;-64
2022/12/09 00:06:42;;;;;;;20.52;10.65;;;;;;;;;;5053693;28;20123;-64
2022/12/09 00:09:10;;;;;;;22.85;11.10;;;;;;;;;;5054240;28;20037;-64
2022/12/09 00:11:36;;;;;;;20.80;11.85;;;;;;;;;;5054317;28;20411;-64
2022/12/09 00:14:02;;;;;;;20.83;11.32;;;;;;;;;;5053542;28;20041;-64
2022/12/09 00:16:28;;;;;;;24.75;11.82;;;;;;;;;;5054123;28;20068;-64
2022/12/09 00:18:56;;;;;;;21.00;11.07;;;;;;;;;;5053631;28;20049;-64
2022/12/09 00:21:23;;;;;;;19.77;11.23;;;;;;;;;;5053642;28;20037;-64
2022/12/09 00:23:50;;;;;;;22.05;11.25;;;;;;;;;;5054051;28;20037;-64
2022/12/09 00:26:17;;;;;;;20.35;11.23;;;;;;;;;;5054054;28;20765;-64
2022/12/09 00:28:43;;;;;;;24.50;12.38;;;;;;;;;;5053271;28;20127;-64
2022/12/09 00:31:13;;;;;;;23.40;12.55;;;;;;;;;;5053141;28;20055;-64
2022/12/09 00:33:39;;;;;;;22.80;12.52;;;;;;;;;;5053971;28;20044;-64
2022/12/09 00:36:10;;;;;;;21.00;12.43;;;;;;;;;;5053706;28;20036;-64
2022/12/09 00:38:36;;;;;;;23.80;11.48;;;;;;;;;;5053773;28;20037;-64
2022/12/09 00:41:03;;;;;;;20.60;11.15;;;;;;;;;;5053536;28;20045;-64
2022/12/09 00:43:29;;;;;;;19.08;10.77;;;;;;;;;;5053560;28;20094;-64
2022/12/09 00:45:55;;;;;;;24.50;12.18;;;;;;;;;;5053405;28;20091;-64
2022/12/09 00:48:21;;;;;;;22.77;12.13;;;;;;;;;;5053199;28;20103;-64
2022/12/09 00:50:47;;;;;;;22.20;12.60;;;;;;;;;;5053452;28;20423;-64
2022/12/09 00:53:14;;;;;;;21.02;11.80;;;;;;;;;;5052986;28;20419;-64
2022/12/09 00:55:40;;;;;;;20.88;12.02;;;;;;;;;;5053331;28;20426;-64
2022/12/09 00:58:06;;;;;;;24.88;12.73;;;;;;;;;;5053462;28;20048;-64
2022/12/09 01:00:32;;;;;;;21.17;11.68;;;;;;;;;;5052978;28;20037;-64
2022/12/09 01:02:58;;;;;;;24.13;13.23;;;;;;;;;;5052859;28;20071;-64
2022/12/09 01:05:24;;;;;;;19.80;11.32;;;;;;;;;;5053147;28;20041;-64
2022/12/09 01:07:50;;;;;;;22.80;12.32;;;;;;;;;;5052654;28;20043;-64
2022/12/09 01:10:16;;;;;;;22.20;12.55;;;;;;;;;;5053105;28;20053;-64
2022/12/09 01:12:42;;;;;;;24.50;11.70;;;;;;;;;;5051749;28;20037;-64
2022/12/09 01:15:09;;;;;;;20.83;11.75;;;;;;;;;;5052763;28;20059;-64
2022/12/09 01:17:38;;;;;;;21.80;12.32;;;;;;;;;;5052652;28;20190;-64
2022/12/09 01:20:05;;;;;;;24.83;12.75;;;;;;;;;;5053064;28;20183;-64
2022/12/09 01:22:31;;;;;;;24.20;13.18;;;;;;;;;;5052541;28;20367;-64
2022/12/09 01:24:57;;;;;;;23.45;12.55;;;;;;;;;;5052930;28;20066;-64
2022/12/09 01:27:23;;;;;;;22.05;12.80;;;;;;;;;;5052860;28;20539;-64
2022/12/09 01:29:49;;;;;;;26.40;12.77;;;;;;;;;;5052041;28;20075;-64
2022/12/09 01:32:16;;;;;;;21.27;12.35;;;;;;;;;;5052742;28;20033;-64
2022/12/09 01:34:42;;;;;;;20.92;11.88;;;;;;;;;;5052721;28;20052;-64
2022/12/09 01:37:08;;;;;;;27.63;12.63;;;;;;;;;;5052327;28;20044;-64
2022/12/09 01:39:34;;;;;;;23.35;13.27;;;;;;;;;;5052588;28;20515;-64
2022/12/09 01:42:03;;;;;;;23.90;13.38;;;;;;;;;;5052089;28;20037;-64
2022/12/09 01:44:31;;;;;;;21.70;12.30;;;;;;;;;;5052284;28;20033;-64
2022/12/09 01:46:58;;;;;;;24.30;12.35;;;;;;;;;;5052406;28;20115;-64
2022/12/09 01:49:46;;;;;;;23.38;12.20;;;;;;;;;;5052463;28;20043;-64
2022/12/09 01:52:21;;;;;;;23.15;11.52;;;;;;;;;;5051901;28;20052;-64
2022/12/09 01:54:48;;;;;;;20.85;12.45;;;;;;;;;;5052278;28;20041;-64
2022/12/09 01:57:14;;;;;;;25.08;12.75;;;;;;;;;;5052213;28;20033;-64
2022/12/09 01:59:41;;;;;;;24.33;11.98;;;;;;;;;;5051917;28;20048;-64
2022/12/09 02:02:08;;;;;;;28.42;12.40;;;;;;;;;;5051944;28;20056;-64
2022/12/09 02:04:38;;;;;;;23.70;12.15;;;;;;;;;;5051868;28;20039;-64
2022/12/09 02:07:07;;;;;;;22.40;11.95;;;;;;;;;;5051595;28;20073;-64
2022/12/09 02:09:33;;;;;;;22.85;13.23;;;;;;;;;;5052080;28;20110;-64
2022/12/09 02:11:59;;;;;;;23.58;12.75;;;;;;;;;;5051963;28;20501;-64
2022/12/09 02:14:44;;;;;;;24.27;12.52;;;;;;;;;;5051577;28;20495;-64
2022/12/09 02:17:29;;;;;;;23.65;12.80;;;;;;;;;;5051723;28;20033;-64
2022/12/09 02:20:01;;;;;;;22.25;12.73;;;;;;;;;;5051449;28;20095;-64
2022/12/09 02:22:32;;;;;;;26.25;12.18;;;;;;;;;;5051797;28;20500;-64
2022/12/09 02:25:04;;;;;;;23.92;12.52;;;;;;;;;;5051793;28;20118;-64
2022/12/09 02:27:47;;;;;;;21.55;11.90;;;;;;;;;;5031514;28;20100;-64
2022/12/09 02:30:18;;;;;;;21.30;11.98;;;;;;;;;;5031895;28;20116;-64
2022/12/09 02:32:51;;;;;;;23.63;12.70;;;;;;;;;;5031873;28;20128;-64
2022/12/09 02:35:17;;;;;;;20.27;11.50;;;;;;;;;;5031127;28;20051;-64
2022/12/09 02:38:09;;;;;;;22.40;11.48;;;;;;;;;;5031804;28;20484;-64
2022/12/09 02:40:40;;;;;;;26.80;12.93;;;;;;;;;;5029493;28;20053;-64
2022/12/09 02:43:07;;;;;;;24.13;12.85;;;;;;;;;;5031302;28;20631;-64
2022/12/09 02:45:35;;;;;;;27.75;13.20;;;;;;;;;;5031761;28;20056;-64
2022/12/09 02:48:01;;;;;;;21.70;12.05;;;;;;;;;;5031604;28;20044;-64
2022/12/09 02:50:29;;;;;;;22.60;11.73;;;;;;;;;;5031179;28;20049;-64
2022/12/09 02:52:56;;;;;;;20.98;11.98;;;;;;;;;;5030747;28;20049;-64
2022/12/09 02:55:22;;;;;;;23.83;11.88;;;;;;;;;;5031314;28;20056;-64
2022/12/09 02:57:51;;;;;;;23.50;12.50;;;;;;;;;;5045300;28;20045;-64
2022/12/09 03:00:18;;;;;;;22.88;11.85;;;;;;;;;;5051126;28;20037;-64
2022/12/09 03:02:47;;;;;;;22.20;12.27;;;;;;;;;;5050943;28;20041;-64
2022/12/09 03:05:22;;;;;;;23.80;12.43;;;;;;;;;;5050902;28;20448;-64
2022/12/09 03:07:51;;;;;;;19.73;11.13;;;;;;;;;;5051255;28;20064;-64
2022/12/09 03:10:20;;;;;;;22.38;11.50;;;;;;;;;;5051296;28;20040;-64
2022/12/09 03:12:49;;;;;;;20.13;11.52;;;;;;;;;;5050719;28;20095;-64
2022/12/09 03:15:17;;;;;;;21.85;12.23;;;;;;;;;;5051081;28;20090;-64
2022/12/09 03:17:44;;;;;;;22.10;12.13;;;;;;;;;;5050988;28;20399;-64
2022/12/09 03:20:13;;;;;;;23.17;12.40;;;;;;;;;;5050807;28;20037;-64
2022/12/09 03:22:41;;;;;;;20.45;11.25;;;;;;;;;;5050923;28;20482;-64
2022/12/09 03:25:07;;;;;;;23.20;12.60;;;;;;;;;;5050766;28;20044;-64
2022/12/09 03:27:35;;;;;;;22.42;11.82;;;;;;;;;;5050683;28;20825;-64
2022/12/09 03:30:02;;;;;;;22.73;11.98;;;;;;;;;;5050686;28;20084;-64
2022/12/09 03:32:30;;;;;;;22.33;11.90;;;;;;;;;;5050880;28;20040;-64
2022/12/09 03:35:08;;;;;;;21.65;12.50;;;;;;;;;;5050653;28;20384;-64
2022/12/09 03:37:35;;;;;;;20.33;11.95;;;;;;;;;;5050970;28;20072;-64
2022/12/09 03:40:03;;;;;;;20.13;11.88;;;;;;;;;;5050959;28;20037;-64
2022/12/09 03:42:36;;;;;;;19.55;10.60;;;;;;;;;;5050422;28;20042;-64
2022/12/09 03:45:07;;;;;;;24.05;11.25;;;;;;;;;;5050722;28;20084;-64
2022/12/09 03:47:33;;;;;;;23.27;11.65;;;;;;;;;;5051038;28;20079;-64
2022/12/09 03:49:59;;;;;;;21.08;11.20;;;;;;;;;;5050750;28;20041;-64
2022/12/09 03:52:35;;;;;;;21.33;11.23;;;;;;;;;;5050810;28;20052;-64
2022/12/09 03:55:04;;;;;;;23.92;12.07;;;;;;;;;;5050935;28;20087;-64
2022/12/09 03:57:31;;;;;;;22.13;11.30;;;;;;;;;;5050376;28;20506;-64
2022/12/09 03:59:59;;;;;;;20.33;10.45;;;;;;;;;;5050950;28;20091;-64
2022/12/09 04:02:25;;;;;;;22.02;11.55;;;;;;;;;;5050597;28;20431;-64
2022/12/09 04:04:51;;;;;;;20.05;10.93;;;;;;;;;;5051906;28;20143;-64
2022/12/09 04:07:17;;;;;;;20.90;11.02;;;;;;;;;;5053914;28;20045;-64
2022/12/09 04:09:43;;;;;;;21.73;12.18;;;;;;;;;;5054328;28;20387;-64
2022/12/09 04:12:09;;;;;;;19.30;10.80;;;;;;;;;;5053806;28;20033;-64
2022/12/09 04:14:35;;;;;;;19.92;11.63;;;;;;;;;;5054171;28;20076;-64
2022/12/09 04:17:02;;;;;;;20.95;10.75;;;;;;;;;;5054252;28;20048;-64
2022/12/09 04:19:28;;;;;;;21.08;11.00;;;;;;;;;;5053455;28;20056;-64
2022/12/09 04:21:54;;;;;;;24.45;12.30;;;;;;;;;;5054081;28;20049;-64
2022/12/09 04:24:20;;;;;;;19.73;10.90;;;;;;;;;;5053747;28;20044;-64
2022/12/09 04:26:46;;;;;;;21.45;11.27;;;;;;;;;;5053467;28;20468;-64
2022/12/09 04:29:12;;;;;;;20.63;11.35;;;;;;;;;;5054092;28;20102;-64
2022/12/09 04:31:38;;;;;;;21.08;11.23;;;;;;;;;;5053851;28;20124;-64
2022/12/09 04:34:04;;;;;;;21.70;10.88;;;;;;;;;;5053548;28;20032;-64
2022/12/09 04:36:31;;;;;;;22.08;12.00;;;;;;;;;;5053900;28;20502;-64
2022/12/09 04:38:57;;;;;;;18.77;10.60;;;;;;;;;;5053801;28;20039;-64
2022/12/09 04:41:23;;;;;;;19.48;10.32;;;;;;;;;;5053262;28;20041;-64
2022/12/09 04:43:49;;;;;;;21.83;11.07;;;;;;;;;;5053160;28;20041;-64
2022/12/09 04:46:16;;;;;;;20.48;10.95;;;;;;;;;;5053550;28;20124;-64
2022/12/09 04:48:42;;;;;;;21.30;11.05;;;;;;;;;;5053292;28;20037;-64
2022/12/09 04:51:09;;;;;;;20.42;11.10;;;;;;;;;;5053403;28;20080;-64
2022/12/09 04:53:35;;;;;;;20.73;11.02;;;;;;;;;;5053368;28;20113;-64
2022/12/09 04:56:06;;;;;;;20.13;10.80;;;;;;;;;;5051465;28;20037;-64
2022/12/09 04:58:32;;;;;;;22.42;11.52;;;;;;;;;;5033471;28;20121;-64
2022/12/09 05:00:58;;;;;;;25.73;12.27;;;;;;;;;;5033292;28;20088;-64
2022/12/09 05:03:24;;;;;;;22.08;11.68;;;;;;;;;;5033025;28;20037;-64
2022/12/09 05:05:50;;;;;;;22.45;12.13;;;;;;;;;;5033255;28;20047;-64
2022/12/09 05:08:16;;;;;;;24.02;11.40;;;;;;;;;;5033210;28;20458;-64
2022/12/09 05:10:48;;;;;;;24.63;11.23;;;;;;;;;;5050759;28;20033;-64
2022/12/09 05:13:14;;;;;;;23.30;11.48;;;;;;;;;;5052964;28;20098;-64
2022/12/09 05:15:40;;;;;;;22.75;11.93;;;;;;;;;;5052365;28;20048;-64
2022/12/09 05:18:06;;;;;;;21.67;11.32;;;;;;;;;;5052308;28;20417;-64
2022/12/09 05:20:32;;;;;;;22.00;10.90;;;;;;;;;;5053143;28;20044;-64
2022/12/09 05:22:58;;;;;;;20.77;10.60;;;;;;;;;;5052815;28;20703;-64
2022/12/09 05:25:24;;;;;;;24.00;11.18;;;;;;;;;;5052512;28;20119;-64
2022/12/09 05:27:50;;;;;;;22.45;11.20;;;;;;;;;;5052956;28;20124;-64
2022/12/09 05:30:16;;;;;;;19.83;10.57;;;;;;;;;;5052581;28;20634;-64
2022/12/09 05:32:42;;;;;;;20.58;11.05;;;;;;;;;;5052316;28;20418;-64
2022/12/09 05:35:08;;;;;;;21.05;10.63;;;;;;;;;;5052604;28;20056;-64
2022/12/09 05:37:34;;;;;;;28.30;12.05;;;;;;;;;;5052763;28;20041;-64
2022/12/09 05:40:01;;;;;;;24.40;12.07;;;;;;;;;;5052158;28;20033;-64
2022/12/09 05:42:27;;;;;;;23.45;12.05;;;;;;;;;;5052100;28;20048;-64
2022/12/09 05:44:54;;;;;;;22.75;12.13;;;;;;;;;;5052434;28;20090;-64
2022/12/09 05:47:20;;;;;;;20.92;11.10;;;;;;;;;;5052106;28;20041;-64
2022/12/09 05:49:46;;;;;;;28.33;14.18;;;;;;;;;;5052517;28;20067;-64
2022/12/09 05:52:13;;;;;;;25.17;14.32;;;;;;;;;;5052265;28;20041;-64
2022/12/09 05:54:39;;;;;;;25.25;12.80;;;;;;;;;;5050800;28;20448;-64
2022/12/09 05:57:06;;;;;;;27.38;13.15;;;;;;;;;;5051779;28;20037;-64
2022/12/09 05:59:32;;;;;;;28.50;12.88;;;;;;;;;;5052183;28;20044;-64
2022/12/09 06:01:58;;;;;;;23.58;11.77;;;;;;;;;;5051808;28;20044;-64
2022/12/09 06:04:24;;;;;;;22.30;12.02;;;;;;;;;;5052154;28;20069;-64
2022/12/09 06:06:50;;;;;;;24.30;11.48;;;;;;;;;;5051514;28;20048;-64
2022/12/09 06:09:16;;;;;;;23.85;11.95;;;;;;;;;;5051620;28;20037;-64
2022/12/09 06:11:42;;;;;;;24.77;12.32;;;;;;;;;;5051645;28;20043;-64
2022/12/09 06:14:08;;;;;;;24.33;11.95;;;;;;;;;;5051561;28;20537;-64
2022/12/09 06:16:34;;;;;;;24.85;12.25;;;;;;;;;;5051488;28;20067;-64
2022/12/09 06:19:00;;;;;;;28.20;12.70;;;;;;;;;;5051256;28;20523;-63
2022/12/09 06:21:27;;;;;;;20.85;11.60;;;;;;;;;;5051739;28;20045;-64
2022/12/09 06:23:53;;;;;;;26.58;13.43;;;;;;;;;;5051724;28;20537;-64
2022/12/09 06:26:20;;;;;;;26.35;13.82;;;;;;;;;;5051057;28;20049;-64
2022/12/09 06:28:47;;;;;;;24.73;12.60;;;;;;;;;;5050830;28;20087;-64
2022/12/09 06:31:13;;;;;;;23.35;12.13;;;;;;;;;;5051547;28;20072;-64
2022/12/09 06:33:39;;;;;;;28.42;13.13;;;;;;;;;;5040659;28;20111;-63
2022/12/09 06:36:05;;;;;;;27.70;12.90;;;;;;;;;;5039503;28;20040;-64
2022/12/09 06:38:32;;;;;;;23.02;13.35;;;;;;;;;;5051210;28;20500;-65
2022/12/09 06:40:58;;;;;;;27.65;13.88;;;;;;;;;;5050260;28;20404;-65
2022/12/09 06:43:24;;;;;;;24.77;13.63;;;;;;;;;;5051037;28;20044;-63
2022/12/09 06:45:50;;;;;;;26.65;14.45;;;;;;;;;;5049692;28;20460;-64
2022/12/09 06:48:16;;;;;;;24.90;12.73;;;;;;;;;;5050306;28;20044;-65
2022/12/09 06:50:42;;;;;;;28.30;13.65;;;;;;;;;;5050952;28;20590;-65
2022/12/09 06:53:08;;;;;;;27.75;13.25;;;;;;;;;;5049664;28;20707;-65
2022/12/09 06:55:34;;;;;;;32.47;15.43;;;;;;;;;;5050459;28;20387;-65
2022/12/09 06:58:00;;;;;;;24.25;13.93;;;;;;;;;;5050960;28;20037;-65
2022/12/09 07:00:26;;;;;;;29.98;14.85;;;;;;;;;;5050927;28;20044;-66
2022/12/09 07:02:53;;;;;;;26.08;13.77;;;;;;;;;;5049947;28;20041;-66
2022/12/09 07:05:19;;;;;;;25.40;13.73;;;;;;;;;;5050499;28;20051;-66
2022/12/09 07:07:49;;;;;;;31.23;15.00;;;;;;;;;;5050723;28;20078;-66
2022/12/09 07:10:16;;;;;;;25.45;14.10;;;;;;;;;;5036196;28;20049;-66
2022/12/09 07:12:42;;;;;;;27.42;14.65;;;;;;;;;;5042948;28;20533;-66
2022/12/09 07:15:08;;;;;;;30.70;14.57;;;;;;;;;;5051065;28;20084;-66
2022/12/09 07:17:34;;;;;;;26.48;13.85;;;;;;;;;;5050114;28;20123;-65
2022/12/09 07:20:00;;;;;;;26.42;13.50;;;;;;;;;;5050693;28;20423;-65
2022/12/09 07:22:26;;;;;;;25.67;13.20;;;;;;;;;;5031559;28;20037;-61
2022/12/09 07:24:52;;;;;;;24.05;12.77;;;;;;;;;;5043042;28;20167;-60
2022/12/09 07:27:18;;;;;;;24.58;12.02;;;;;;;;;;5049693;28;20037;-62
2022/12/09 07:29:44;;;;;;;25.20;11.68;;;;;;;;;;5047564;28;20033;-63
2022/12/09 07:32:10;;;;;;;22.67;11.98;;;;;;;;;;5037448;28;20044;-61
2022/12/09 07:34:37;;;;;;;24.83;11.82;;;;;;;;;;5040773;28;20216;-64
2022/12/09 07:37:03;;;;;;;26.67;13.23;;;;;;;;;;5044634;28;20033;-65
2022/12/09 07:39:29;;;;;;;26.33;12.40;;;;;;;;;;5051857;28;20467;-64
2022/12/09 07:41:56;;;;;;;23.60;12.48;;;;;;;;;;5054020;28;20063;-64
2022/12/09 07:44:23;;;;;;;23.38;12.15;;;;;;;;;;5053491;28;20071;-64
2022/12/09 07:46:49;;;;;;;25.88;12.88;;;;;;;;;;5053458;28;20131;-64
2022/12/09 07:49:15;;;;;;;26.08;12.38;;;;;;;;;;5054102;28;20136;-64
2022/12/09 07:51:42;;;;;;;25.27;13.57;;;;;;;;;;5053127;28;20053;-64
2022/12/09 07:54:11;;;;;;;23.27;12.77;;;;;;;;;;5041341;28;20067;-64
2022/12/09 07:56:38;;;;;;;26.65;12.40;;;;;;;;;;5041915;28;20041;-65
2022/12/09 07:59:05;;;;;;;25.75;12.30;;;;;;;;;;5046520;28;20637;-65
2022/12/09 08:01:31;;;;;;;31.67;12.93;;;;;;;;;;5050046;28;20037;-64
2022/12/09 08:03:57;;;;;;;22.85;12.93;;;;;;;;;;5047920;28;20465;-64
2022/12/09 08:06:24;;;;;;;22.52;11.77;;;;;;;;;;5035062;28;20076;-64
2022/12/09 08:08:50;;;;;;;23.73;11.48;;;;;;;;;;5035319;28;20124;-64
2022/12/09 08:11:16;;;;;;;25.48;12.45;;;;;;;;;;5037433;28;20049;-64
2022/12/09 08:13:43;;;;;;;21.85;11.35;;;;;;;;;;5032125;28;20392;-64
2022/12/09 08:16:10;;;;;;;25.13;13.02;;;;;;;;;;5032372;28;20480;-64
2022/12/09 08:18:37;;;;;;;24.73;12.05;;;;;;;;;;5032465;28;20096;-63
2022/12/09 08:21:04;;;;;;;27.55;14.00;;;;;;;;;;5033121;28;20045;-63
2022/12/09 08:23:30;;;;;;;25.75;13.32;;;;;;;;;;5031532;28;20053;-63
2022/12/09 08:25:56;;;;;;;23.42;12.75;;;;;;;;;;5039894;28;20041;-64
2022/12/09 08:28:23;;;;;;;24.65;12.10;;;;;;;;;;5052765;28;20045;-63
2022/12/09 08:30:49;;;;;;;26.80;14.27;;;;;;;;;;5050346;28;20052;-63
2022/12/09 08:33:16;;;;;;;34.28;17.27;;;;;;;;;;5052423;28;20080;-64
2022/12/09 08:35:42;;;;;;;39.13;19.05;;;;;;;;;;5051700;28;20098;-64
2022/12/09 08:38:08;;;;;;;43.58;19.70;;;;;;;;;;5052368;28;20076;-63
2022/12/09 08:40:34;;;;;;;43.22;18.48;;;;;;;;;;5052998;28;20029;-62
2022/12/09 08:43:02;;;;;;;38.97;19.45;;;;;;;;;;5052522;28;20091;-63
2022/12/09 08:45:28;;;;;;;41.30;19.95;;;;;;;;;;5050610;28;20045;-63
2022/12/09 08:47:54;;;;;;;71.47;23.25;;;;;;;;;;5052261;28;20044;-63
2022/12/09 08:50:20;;;;;;;56.42;25.30;;;;;;;;;;5041573;28;20044;-63
2022/12/09 08:52:46;;;;;;;57.80;24.40;;;;;;;;;;5050899;28;20036;-63
2022/12/09 08:55:12;;;;;;;83.07;27.80;;;;;;;;;;5045983;28;20048;-64
2022/12/09 08:57:38;;;;;;;59.20;25.02;;;;;;;;;;5050069;28;20159;-63
2022/12/09 09:00:05;;;;;;;82.82;26.13;;;;;;;;;;5050385;28;20041;-65
2022/12/09 09:02:31;;;;;;;87.20;25.90;;;;;;;;;;5051996;28;20136;-65
2022/12/09 09:04:58;;;;;;;87.95;25.40;;;;;;;;;;5040141;28;20523;-63
2022/12/09 09:07:24;;;;;;;188.55;29.02;;;;;;;;;;5045231;28;20529;-64
2022/12/09 09:09:50;;;;;;;140.35;27.88;;;;;;;;;;5042621;28;20482;-64
2022/12/09 09:12:16;;;;;;;198.00;27.90;;;;;;;;;;5051706;28;20756;-64
2022/12/09 09:14:42;;;;;;;155.00;26.80;;;;;;;;;;5050588;28;20052;-64
2022/12/09 09:17:08;;;;;;;64.28;24.10;;;;;;;;;;5051775;28;20110;-65
2022/12/09 09:19:34;;;;;;;162.18;25.52;;;;;;;;;;5050839;28;20068;-66
2022/12/09 09:22:00;;;;;;;154.30;27.95;;;;;;;;;;5045426;28;20121;-65
2022/12/09 09:24:26;;;;;;;112.10;23.95;;;;;;;;;;5031586;28;20140;-66
2022/12/09 09:26:53;;;;;;;127.10;25.90;;;;;;;;;;5039164;28;20037;-67
2022/12/09 09:29:20;;;;;;;53.30;21.73;;;;;;;;;;5031034;28;20060;-67
2022/12/09 09:31:48;;;;;;;68.45;21.33;;;;;;;;;;5029675;28;20396;-65
2022/12/09 09:34:16;;;;;;;58.80;21.60;;;;;;;;;;5030717;28;20042;-65
2022/12/09 09:36:43;;;;;;;65.63;22.08;;;;;;;;;;5033687;28;20188;-64
2022/12/09 09:39:09;;;;;;;106.28;21.90;;;;;;;;;;5031217;28;20116;-65
2022/12/09 09:41:49;;;;;;;61.35;21.85;;;;;;;;;;5032237;28;20080;-65
2022/12/09 09:44:18;;;;;;;106.10;23.38;;;;;;;;;;5045883;28;20037;-63
2022/12/09 09:46:45;;;;;;;52.33;21.45;;;;;;;;;;5042096;28;20046;-62
2022/12/09 09:49:25;;;;;;;62.60;21.08;;;;;;;;;;5031148;28;20124;-61
2022/12/09 09:51:51;;;;;;;80.43;22.30;;;;;;;;;;5030835;28;20045;-64
2022/12/09 09:54:18;;;;;;;70.93;21.65;;;;;;;;;;5031025;28;20625;-63
2022/12/09 09:56:50;;;;;;;99.68;23.55;;;;;;;;;;5035696;28;20084;-62
2022/12/09 09:59:34;;;;;;;63.65;22.38;;;;;;;;;;5031893;28;20068;-65
2022/12/09 10:02:11;;;;;;;59.30;21.80;;;;;;;;;;5037385;28;20059;-64
2022/12/09 10:04:56;;;;;;;47.60;21.60;;;;;;;;;;5048643;28;20041;-62
2022/12/09 10:07:33;;;;;;;97.75;23.58;;;;;;;;;;5048961;28;20045;-61
2022/12/09 10:10:17;;;;;;;54.05;21.70;;;;;;;;;;5036850;28;20045;-61
2022/12/09 10:12:43;;;;;;;70.47;22.40;;;;;;;;;;5037122;28;20044;-61
2022/12/09 10:15:13;;;;;;;102.75;23.45;;;;;;;;;;5041224;28;20127;-62
2022/12/09 10:17:54;;;;;;;66.20;21.55;;;;;;;;;;5032552;28;20168;-64
2022/12/09 10:20:26;;;;;;;50.45;20.52;;;;;;;;;;5034384;28;20129;-63
2022/12/09 10:22:52;;;;;;;;;;;;;;;;;;5030759;28;20487;-63
2022/12/09 10:25:18;;;;;;;43.58;19.42;;;;;;;;;;5032687;28;19917;-63
2022/12/09 10:27:56;;;;;;;97.65;23.45;;;;;;;;;;5037064;28;20482;-62
2022/12/09 10:30:22;;;;;;;51.90;21.65;;;;;;;;;;5031688;28;20049;-63
2022/12/09 10:32:48;;;;;;;52.58;21.80;;;;;;;;;;5037448;28;20048;-63
2022/12/09 10:35:26;;;;;;;48.50;21.73;;;;;;;;;;5029712;28;20124;-63
2022/12/09 10:37:53;;;;;;;48.58;22.10;;;;;;;;;;5045852;28;20372;-63
2022/12/09 10:40:29;;;;;;;45.95;20.98;;;;;;;;;;5049868;28;20043;-64
2022/12/09 10:45:54;;;;;;;47.40;21.15;;;;;;;;;;5049626;28;20052;-63
2022/12/09 10:48:29;;;;;;;50.95;21.80;;;;;;;;;;5048993;28;20086;-61
2022/12/09 10:50:56;;;;;;;49.22;23.30;;;;;;;;;;5049873;28;20929;-63
2022/12/09 10:53:23;;;;;;;57.85;23.80;;;;;;;;;;5049589;28;20391;-63
2022/12/09 10:55:50;;;;;;;50.60;22.55;;;;;;;;;;5049972;28;20049;-63
2022/12/09 10:58:16;;;;;;;49.33;23.85;;;;;;;;;;5048162;28;20048;-63
2022/12/09 11:00:43;;;;;;;47.60;21.92;;;;;;;;;;5041381;28;20037;-63
2022/12/09 11:03:35;;;;;;;48.67;21.50;;;;;;;;;;5042968;28;20090;-61
2022/12/09 11:06:03;;;;;;;44.72;21.75;;;;;;;;;;5045590;28;20080;-62
2022/12/09 11:08:29;;;;;;;51.20;22.15;;;;;;;;;;5049292;28;20546;-62
2022/12/09 11:10:55;;;;;;;45.97;20.95;;;;;;;;;;5050093;28;20589;-62
2022/12/09 11:13:27;;;;;;;52.60;21.77;;;;;;;;;;5049886;28;20628;-63
2022/12/09 11:15:57;;;;;;;48.15;21.75;;;;;;;;;;5053562;28;20626;-62
2022/12/09 11:18:29;;;;;;;47.10;21.58;;;;;;;;;;5049101;28;20065;-62
2022/12/09 11:20:56;;;;;;;43.97;20.65;;;;;;;;;;5053346;28;20049;-63
2022/12/09 11:23:22;;;;;;;61.97;22.33;;;;;;;;;;5053471;28;20092;-63
2022/12/09 11:25:56;;;;;;;50.03;21.95;;;;;;;;;;5053322;28;20045;-63
2022/12/09 11:28:26;;;;;;;45.92;21.15;;;;;;;;;;5052804;28;20120;-63
2022/12/09 11:30:59;;;;;;;48.25;22.40;;;;;;;;;;5053865;28;20052;-64
2022/12/09 11:33:39;;;;;;;44.75;20.77;;;;;;;;;;5053310;28;20076;-63
2022/12/09 11:36:08;;;;;;;46.53;22.60;;;;;;;;;;5053051;28;20072;-64
2022/12/09 11:38:41;;;;;;;53.72;22.95;;;;;;;;;;5053466;28;20036;-64
2022/12/09 11:41:10;;;;;;;44.83;21.23;;;;;;;;;;5053573;28;20124;-64
2022/12/09 11:43:46;;;;;;;41.20;20.13;;;;;;;;;;5052190;28;20037;-64
2022/12/09 11:46:11;;;;;;;41.78;20.33;;;;;;;;;;5053544;28;20048;-63
2022/12/09 11:48:38;;;;;;;49.10;21.58;;;;;;;;;;5049491;28;20400;-63
2022/12/09 11:51:05;;;;;;;43.83;20.48;;;;;;;;;;5038310;28;20083;-63
2022/12/09 11:53:32;;;;;;;46.45;22.20;;;;;;;;;;5053441;28;20131;-63
2022/12/09 11:56:02;;;;;;;46.15;21.60;;;;;;;;;;5053146;28;20041;-63
2022/12/09 11:58:43;;;;;;;40.92;20.58;;;;;;;;;;5053209;28;20044;-63
2022/12/09 12:01:12;;;;;;;48.03;24.02;;;;;;;;;;5053463;28;20044;-63
2022/12/09 12:03:51;;;;;;;46.20;20.58;;;;;;;;;;5050043;28;20037;-63
2022/12/09 12:06:25;;;;;;;42.13;20.95;;;;;;;;;;5049778;28;20045;-63
2022/12/09 12:08:58;;;;;;;45.22;20.90;;;;;;;;;;5050380;28;20758;-63
2022/12/09 12:11:28;;;;;;;42.90;19.38;;;;;;;;;;5040581;28;20129;-63
2022/12/09 12:14:00;;;;;;;44.40;20.70;;;;;;;;;;5052363;28;20045;-63
2022/12/09 12:16:29;;;;;;;42.20;20.83;;;;;;;;;;5052478;28;20110;-63
2022/12/09 12:19:14;;;;;;;47.47;21.67;;;;;;;;;;5052428;28;20152;-63
2022/12/09 12:21:43;;;;;;;46.55;21.15;;;;;;;;;;5052594;28;20396;-62
2022/12/09 12:24:21;;;;;;;48.63;21.38;;;;;;;;;;5052909;28;20044;-62
2022/12/09 12:26:54;;;;;;;47.70;21.92;;;;;;;;;;5052207;28;20075;-63
2022/12/09 12:29:23;;;;;;;47.15;21.85;;;;;;;;;;5052519;28;20124;-63
2022/12/09 12:32:01;;;;;;;46.45;22.17;;;;;;;;;;5044122;28;20049;-64
2022/12/09 12:34:50;;;;;;;47.13;21.95;;;;;;;;;;5035203;28;20052;-64
2022/12/09 12:37:16;;;;;;;44.08;20.27;;;;;;;;;;5045999;28;20097;-64
2022/12/09 12:40:04;;;;;;;44.17;21.73;;;;;;;;;;5052153;28;20108;-63
2022/12/09 12:46:15;;;;;;;46.35;21.55;;;;;;;;;;5052082;28;20040;-63
2022/12/09 12:48:23;;;;;;;47.63;21.35;;;;;;;;;;5052486;28;20534;-64
2022/12/09 12:50:55;;;;;;;46.75;21.08;;;;;;;;;;5050894;28;20069;-63
2022/12/09 12:53:41;;;;;;;46.05;21.85;;;;;;;;;;5046146;28;20072;-62
2022/12/09 12:56:07;;;;;;;43.60;20.05;;;;;;;;;;5052342;28;20041;-62
2022/12/09 12:58:52;;;;;;;41.45;20.23;;;;;;;;;;5052296;28;20136;-63
2022/12/09 13:01:24;;;;;;;46.95;20.35;;;;;;;;;;5017861;28;20125;-63
2022/12/09 13:03:57;;;;;;;46.55;21.30;;;;;;;;;;5040213;28;20049;-63
2022/12/09 13:06:43;;;;;;;51.03;24.27;;;;;;;;;;5052261;28;20384;-63
2022/12/09 13:09:17;;;;;;;47.15;22.58;;;;;;;;;;5041727;28;20140;-63
2022/12/09 13:11:46;;;;;;;47.22;21.13;;;;;;;;;;5051478;28;20124;-64
2022/12/09 13:14:15;;;;;;;50.08;23.27;;;;;;;;;;5053080;28;20253;-65
2022/12/09 13:16:43;;;;;;;47.70;21.20;;;;;;;;;;5052284;28;20045;-65
2022/12/09 13:19:13;;;;;;;46.83;21.83;;;;;;;;;;5051982;28;20057;-64
2022/12/09 13:21:40;;;;;;;48.45;23.17;;;;;;;;;;5051796;28;20048;-64
2022/12/09 13:24:20;;;;;;;47.50;22.80;;;;;;;;;;5045711;28;20507;-63
2022/12/09 13:27:06;;;;;;;46.10;21.92;;;;;;;;;;5048478;28;20049;-61
2022/12/09 13:29:51;;;;;;;50.20;22.67;;;;;;;;;;5034708;28;20392;-61
2022/12/09 13:32:36;;;;;;;47.90;21.73;;;;;;;;;;5048508;28;20516;-61
2022/12/09 13:35:10;;;;;;;44.67;20.60;;;;;;;;;;5043408;28;20041;-62
2022/12/09 13:37:36;;;;;;;48.75;21.63;;;;;;;;;;5050360;28;20040;-62
2022/12/09 13:40:22;;;;;;;49.70;21.80;;;;;;;;;;5049187;28;20075;-62
2022/12/09 13:42:52;;;;;;;46.45;21.23;;;;;;;;;;5047369;28;20032;-62
2022/12/09 13:45:47;;;;;;;47.15;21.67;;;;;;;;;;5046794;28;20402;-62
2022/12/09 13:48:13;;;;;;;39.22;17.80;;;;;;;;;;5041669;28;20098;-64
2022/12/09 13:50:41;;;;;;;37.70;18.40;;;;;;;;;;5043136;28;20053;-63
2022/12/09 13:53:19;;;;;;;38.40;17.85;;;;;;;;;;5048333;28;20464;-62
2022/12/09 13:55:59;;;;;;;39.55;18.50;;;;;;;;;;5040249;28;20120;-61
2022/12/09 13:58:46;;;;;;;35.75;17.75;;;;;;;;;;5048166;28;20052;-62
2022/12/09 14:01:12;;;;;;;36.15;17.80;;;;;;;;;;5047487;28;20947;-58
2022/12/09 14:03:57;;;;;;;36.58;17.13;;;;;;;;;;5046587;28;20040;-58
2022/12/09 14:06:31;;;;;;;35.47;18.13;;;;;;;;;;5050482;28;20047;-59
2022/12/09 14:09:00;;;;;;;34.35;16.25;;;;;;;;;;5050381;28;20091;-59
2022/12/09 14:11:46;;;;;;;36.58;17.33;;;;;;;;;;5048719;28;20048;-60
2022/12/09 14:14:17;;;;;;;31.85;16.15;;;;;;;;;;5050414;28;20045;-60
2022/12/09 14:16:43;;;;;;;41.35;20.45;;;;;;;;;;5049620;28;20110;-59
2022/12/09 14:19:28;;;;;;;36.95;16.98;;;;;;;;;;5047051;28;20052;-60
2022/12/09 14:22:16;;;;;;;33.35;15.75;;;;;;;;;;5050763;28;20041;-60
2022/12/09 14:24:43;;;;;;;32.53;15.45;;;;;;;;;;5048069;28;20037;-60
2022/12/09 14:27:11;;;;;;;33.63;17.67;;;;;;;;;;5037076;28;20037;-60
2022/12/09 14:29:48;;;;;;;34.42;16.33;;;;;;;;;;5046741;28;20049;-59
2022/12/09 14:32:31;;;;;;;36.90;17.00;;;;;;;;;;5046452;28;20072;-58
2022/12/09 14:35:02;;;;;;;29.92;15.45;;;;;;;;;;5047252;28;20049;-60